Time;durP1;ratioP1;P1;durP2;ratioP2;P2;SDS_P1;SDS_P2;PMS_P1;PMS_P2;Temp;Humidity;BMP_temperature;BMP_pressure;BME280_temperature;BME280_humidity;BME280_pressure;Samples;Min_cycle;Max_cycle;Signal;HPM_P1;HPM_P2
2021/07/21 00:01:08;;;;;;;0.30;0.30;;;;;;;19.60;57.53;96798.31;5033899;28;20037;-69
2021/07/21 00:03:34;;;;;;;0.63;0.57;;;;;;;19.62;57.40;96793.19;5033468;28;20128;-67
2021/07/21 00:05:59;;;;;;;1.13;0.60;;;;;;;19.64;57.46;96784.50;5033954;28;20073;-68
2021/07/21 00:08:25;;;;;;;0.50;0.50;;;;;;;19.67;57.38;96767.09;5034281;28;20041;-67
2021/07/21 00:13:26;;;;;;;0.17;0.17;;;;;;;19.69;57.54;96773.94;5033883;28;20095;-69
2021/07/21 00:13:37;;;;;;;0.32;0.32;;;;;;;19.73;57.49;96765.75;5032258;28;20472;-68
2021/07/21 00:18:47;;;;;;;0.28;0.28;;;;;;;19.80;57.86;96751.28;5033794;28;20463;-68
2021/07/21 00:21:15;;;;;;;0.20;0.20;;;;;;;19.83;57.64;96745.84;5033576;28;20132;-68
2021/07/21 00:23:42;;;;;;;0.20;0.20;;;;;;;19.87;57.62;96746.75;5033722;28;20080;-68
2021/07/21 00:26:08;;;;;;;0.32;0.32;;;;;;;19.92;57.59;96746.53;5033692;28;20087;-68
2021/07/21 00:28:41;;;;;;;0.40;0.40;;;;;;;19.95;57.54;96736.69;5033467;28;20491;-68
2021/07/21 00:31:08;;;;;;;0.30;0.30;;;;;;;19.97;57.54;96733.53;5033385;28;20052;-69
2021/07/21 00:33:33;;;;;;;0.50;0.40;;;;;;;20.03;57.54;96741.31;5033732;28;20073;-69
2021/07/21 00:35:59;;;;;;;0.20;0.20;;;;;;;20.05;57.62;96729.81;5033474;28;20095;-69
2021/07/21 00:38:25;;;;;;;0.75;0.73;;;;;;;20.05;57.71;96725.06;5033646;28;20041;-69
2021/07/21 00:40:51;;;;;;;0.20;0.20;;;;;;;20.04;57.73;96717.06;5033679;28;20034;-68
2021/07/21 00:43:17;;;;;;;0.20;0.20;;;;;;;20.00;57.87;96716.94;5032858;28;20071;-68
2021/07/21 00:45:43;;;;;;;0.57;0.57;;;;;;;20.00;57.95;96721.69;5033670;28;20113;-68
2021/07/21 00:48:09;;;;;;;0.30;0.30;;;;;;;19.97;57.97;96730.75;5033329;28;20037;-69
2021/07/21 00:50:35;;;;;;;0.32;0.32;;;;;;;19.94;58.30;96733.06;5033168;28;20045;-67
2021/07/21 00:53:01;;;;;;;0.30;0.30;;;;;;;19.90;58.43;96734.91;5033087;28;20042;-69
2021/07/21 00:55:27;;;;;;;0.40;0.40;;;;;;;19.80;58.70;96749.28;5032909;28;20042;-66
2021/07/21 00:57:56;;;;;;;3.58;0.40;;;;;;;19.69;59.23;96739.75;5033034;28;20091;-67
2021/07/21 01:00:22;;;;;;;0.20;0.20;;;;;;;19.56;59.51;96759.19;5033409;28;20180;-68
2021/07/21 01:02:51;;;;;;;0.20;0.20;;;;;;;19.49;59.61;96758.13;5033654;28;20144;-68
2021/07/21 01:05:22;;;;;;;0.55;0.55;;;;;;;19.47;59.99;96752.91;5034413;28;20049;-67
2021/07/21 01:07:52;;;;;;;0.30;0.30;;;;;;;19.50;59.96;96752.22;5037908;28;20037;-67
2021/07/21 01:10:19;;;;;;;0.38;0.38;;;;;;;19.52;59.85;96757.44;5042666;28;20041;-68
2021/07/21 01:12:59;;;;;;;0.20;0.20;;;;;;;19.57;59.82;96766.38;5032301;28;20049;-67
2021/07/21 01:15:37;;;;;;;0.63;0.63;;;;;;;19.65;59.79;96769.44;5033205;28;20049;-68
2021/07/21 01:18:09;;;;;;;0.10;0.10;;;;;;;19.70;59.76;96766.41;5032952;28;20049;-70
2021/07/21 01:20:41;;;;;;;0.98;0.20;;;;;;;19.77;59.61;96758.31;5032686;28;20041;-65
2021/07/21 01:23:31;;;;;;;0.35;0.35;;;;;;;19.85;59.51;96757.44;5032611;28;20041;-67
2021/07/21 01:26:11;;;;;;;0.10;0.10;;;;;;;19.89;59.30;96754.75;5032667;28;20415;-66
2021/07/21 01:28:40;;;;;;;0.15;0.15;;;;;;;19.88;59.33;96740.03;5032826;28;20124;-66
2021/07/21 01:31:12;;;;;;;0.20;0.20;;;;;;;19.86;59.62;96750.72;5032435;28;20056;-65
2021/07/21 01:33:42;;;;;;;1.30;0.45;;;;;;;19.85;59.76;96757.44;5032328;28;20057;-68
2021/07/21 01:36:12;;;;;;;0.30;0.30;;;;;;;19.83;59.83;96756.13;5032419;28;20045;-67
2021/07/21 01:38:41;;;;;;;0.63;0.63;;;;;;;19.83;59.92;96758.94;5032709;28;20049;-67
2021/07/21 01:41:12;;;;;;;0.10;0.10;;;;;;;19.81;60.06;96756.50;5032417;28;20055;-68
2021/07/21 01:43:41;;;;;;;1.25;0.73;;;;;;;19.80;60.27;96756.84;5031644;28;20067;-68
2021/07/21 01:46:08;;;;;;;0.30;0.30;;;;;;;19.80;60.37;96760.41;5032159;28;20377;-70
2021/07/21 01:48:36;;;;;;;0.10;0.10;;;;;;;19.85;60.60;96763.00;5032409;28;20419;-69
2021/07/21 01:51:07;;;;;;;1.85;0.88;;;;;;;19.90;60.33;96754.41;5032511;28;20049;-68
2021/07/21 01:53:37;;;;;;;0.10;0.10;;;;;;;19.92;60.23;96740.97;5032186;28;20107;-68
2021/07/21 01:56:08;;;;;;;0.30;0.30;;;;;;;19.93;60.16;96744.56;5032155;28;20462;-68
2021/07/21 01:58:36;;;;;;;1.10;0.45;;;;;;;19.97;60.39;96741.91;5032216;28;20041;-67
2021/07/21 02:01:06;;;;;;;0.50;0.47;;;;;;;20.03;60.26;96748.84;5032163;28;20052;-66
2021/07/21 02:03:34;;;;;;;0.20;0.20;;;;;;;20.07;60.11;96744.22;5032186;28;20045;-67
2021/07/21 02:06:02;;;;;;;0.65;0.65;;;;;;;20.11;60.31;96745.13;5032213;28;20044;-68
2021/07/21 02:08:29;;;;;;;0.45;0.45;;;;;;;20.13;60.21;96742.81;5031929;28;20037;-67
2021/07/21 02:10:58;;;;;;;1.75;0.75;;;;;;;20.18;59.97;96731.44;5031925;28;20045;-69
2021/07/21 02:13:29;;;;;;;0.85;0.40;;;;;;;20.29;59.99;96735.38;5031440;28;20098;-68
2021/07/21 02:15:56;;;;;;;0.57;0.50;;;;;;;20.42;59.62;96740.94;5031866;28;20054;-67
2021/07/21 02:18:23;;;;;;;0.47;0.47;;;;;;;20.51;59.55;96722.13;5031851;28;20046;-72
2021/07/21 02:20:50;;;;;;;0.40;0.40;;;;;;;20.52;59.67;96726.50;5031906;28;20102;-69
2021/07/21 02:23:18;;;;;;;0.30;0.30;;;;;;;20.48;59.47;96723.63;5032016;28;20565;-69
2021/07/21 02:25:45;;;;;;;0.20;0.20;;;;;;;20.44;59.96;96721.91;5031152;28;20152;-68
2021/07/21 02:28:13;;;;;;;0.40;0.40;;;;;;;20.41;60.08;96722.59;5030994;28;20041;-68
2021/07/21 02:30:40;;;;;;;0.20;0.20;;;;;;;20.40;60.23;96727.34;5030977;28;20052;-68
2021/07/21 02:33:15;;;;;;;0.10;0.10;;;;;;;20.43;60.16;96714.69;5031454;28;20515;-68
2021/07/21 02:35:41;;;;;;;0.40;0.40;;;;;;;20.41;59.96;96712.25;5032174;28;20033;-68
2021/07/21 02:38:07;;;;;;;1.60;1.15;;;;;;;20.42;60.22;96713.91;5035013;28;20037;-68
2021/07/21 02:40:33;;;;;;;0.30;0.30;;;;;;;20.44;60.26;96721.91;5036183;28;20041;-69
2021/07/21 02:42:59;;;;;;;0.20;0.20;;;;;;;20.53;60.22;96724.56;5035104;28;20041;-68
2021/07/21 02:45:25;;;;;;;0.28;0.28;;;;;;;20.61;59.95;96720.81;5035498;28;20091;-68
2021/07/21 02:47:51;;;;;;;0.55;0.30;;;;;;;20.75;59.37;96720.47;5035511;28;20065;-68
2021/07/21 02:50:18;;;;;;;0.20;0.20;;;;;;;20.93;59.07;96712.63;5035175;28;20049;-69
2021/07/21 02:52:57;;;;;;;5.15;0.57;;;;;;;21.10;58.97;96717.09;5035521;28;20041;-69
2021/07/21 02:55:28;;;;;;;0.10;0.10;;;;;;;21.11;58.81;96727.06;5035529;28;20049;-67
2021/07/21 02:58:09;;;;;;;0.32;0.32;;;;;;;21.07;58.92;96717.78;5035789;28;20384;-68
2021/07/21 03:00:35;;;;;;;0.30;0.30;;;;;;;21.07;59.07;96720.56;5035171;28;20033;-68
2021/07/21 03:03:05;;;;;;;0.22;0.22;;;;;;;21.12;59.29;96723.13;5035027;28;20051;-68
2021/07/21 03:05:33;;;;;;;0.22;0.22;;;;;;;21.12;59.40;96723.13;5035187;28;20049;-68
2021/07/21 03:08:00;;;;;;;0.22;0.22;;;;;;;21.07;59.36;96723.38;5033784;28;20439;-68
2021/07/21 03:10:28;;;;;;;0.40;0.40;;;;;;;21.02;59.57;96721.66;5036428;28;20046;-70
2021/07/21 03:13:07;;;;;;;0.25;0.25;;;;;;;20.98;59.87;96721.56;5046143;28;20048;-67
2021/07/21 03:15:36;;;;;;;0.70;0.70;;;;;;;20.92;60.04;96725.78;5038481;28;20115;-69
2021/07/21 03:18:04;;;;;;;0.50;0.50;;;;;;;20.87;60.03;96720.44;5034998;28;20041;-68
2021/07/21 03:20:30;;;;;;;0.57;0.30;;;;;;;20.83;60.46;96706.38;5034907;28;20422;-69
2021/07/21 03:22:59;;;;;;;0.47;0.30;;;;;;;20.82;60.57;96715.91;5033668;28;20048;-68
2021/07/21 03:25:27;;;;;;;0.28;0.28;;;;;;;20.80;60.42;96728.56;5034639;28;20049;-68
2021/07/21 03:27:54;;;;;;;0.20;0.20;;;;;;;20.79;60.36;96741.72;5034601;28;20103;-68
2021/07/21 03:30:23;;;;;;;0.40;0.40;;;;;;;20.80;60.61;96743.34;5034035;28;20052;-68
2021/07/21 03:32:50;;;;;;;0.70;0.70;;;;;;;20.78;60.58;96744.88;5034878;28;20038;-69
2021/07/21 03:35:17;;;;;;;0.25;0.25;;;;;;;20.74;60.85;96736.38;5034681;28;20045;-68
2021/07/21 03:37:47;;;;;;;0.20;0.20;;;;;;;20.73;60.95;96740.34;5034361;28;20041;-69
2021/07/21 03:40:14;;;;;;;0.47;0.47;;;;;;;20.70;60.74;96731.84;5034344;28;20091;-68
2021/07/21 03:42:40;;;;;;;0.32;0.32;;;;;;;20.74;60.86;96733.59;5034191;28;20073;-68
2021/07/21 03:45:10;;;;;;;0.30;0.30;;;;;;;20.76;60.60;96728.47;5034573;28;20042;-67
2021/07/21 03:47:36;;;;;;;0.30;0.30;;;;;;;20.77;61.08;96729.28;5033832;28;20041;-68
2021/07/21 03:50:04;;;;;;;0.57;0.35;;;;;;;20.74;60.78;96730.78;5033751;28;20055;-68
2021/07/21 03:52:33;;;;;;;0.40;0.40;;;;;;;20.79;60.86;96732.56;5034269;28;20067;-69
2021/07/21 03:54:59;;;;;;;1.10;0.65;;;;;;;20.93;60.52;96732.94;5034027;28;20045;-69
2021/07/21 03:57:26;;;;;;;0.20;0.20;;;;;;;21.17;60.02;96731.22;5034131;28;20044;-67
2021/07/21 03:59:52;;;;;;;0.35;0.35;;;;;;;21.42;59.63;96736.69;5034691;28;20046;-67
2021/07/21 04:02:19;;;;;;;0.82;0.68;;;;;;;21.62;59.33;96723.72;5034355;28;20128;-68
2021/07/21 04:04:47;;;;;;;0.10;0.10;;;;;;;21.79;58.90;96716.94;5034155;28;20037;-68
2021/07/21 04:07:19;;;;;;;1.27;1.05;;;;;;;21.91;59.12;96725.25;5033921;28;20392;-67
2021/07/21 04:09:49;;;;;;;0.60;0.40;;;;;;;21.96;58.99;96715.78;5033716;28;20055;-68
2021/07/21 04:12:16;;;;;;;0.10;0.10;;;;;;;21.95;59.20;96714.16;5033473;28;20049;-68
2021/07/21 04:14:46;;;;;;;0.20;0.20;;;;;;;21.96;59.13;96713.81;5033806;28;20072;-68
2021/07/21 04:17:14;;;;;;;0.63;0.63;;;;;;;22.01;59.64;96719.13;5034035;28;20133;-69
2021/07/21 04:19:41;;;;;;;1.38;0.60;;;;;;;22.08;59.31;96723.28;5033704;28;20517;-68
2021/07/21 04:22:08;;;;;;;0.60;0.60;;;;;;;22.16;59.55;96723.09;5033545;28;20124;-68
2021/07/21 04:24:34;;;;;;;0.47;0.40;;;;;;;22.30;59.11;96714.22;5033546;28;20045;-68
2021/07/21 04:27:04;;;;;;;0.38;0.30;;;;;;;22.50;59.05;96711.53;5033230;28;20037;-71
2021/07/21 04:29:33;;;;;;;0.10;0.10;;;;;;;22.63;58.85;96714.97;5033440;28;20101;-69
2021/07/21 04:32:02;;;;;;;0.30;0.22;;;;;;;22.78;58.22;96713.31;5032952;28;20037;-68
2021/07/21 04:34:29;;;;;;;0.40;0.35;;;;;;;22.92;58.06;96706.03;5033597;28;20124;-70
2021/07/21 04:36:56;;;;;;;0.38;0.32;;;;;;;23.10;58.18;96708.44;5033314;28;20038;-68
2021/07/21 04:39:22;;;;;;;0.40;0.40;;;;;;;23.28;57.48;96711.59;5033601;28;20048;-69
2021/07/21 04:41:51;;;;;;;0.20;0.20;;;;;;;23.47;57.29;96707.94;5032808;28;20057;-69
2021/07/21 04:44:18;;;;;;;1.38;0.73;;;;;;;23.68;57.17;96713.13;5033707;28;20065;-68
2021/07/21 04:46:44;;;;;;;0.13;0.13;;;;;;;23.94;56.57;96714.41;5032204;28;20052;-69
2021/07/21 04:49:14;;;;;;;0.82;0.82;;;;;;;24.21;55.86;96720.06;5033237;28;20085;-68
2021/07/21 04:51:41;;;;;;;0.32;0.32;;;;;;;24.41;55.71;96713.16;5033238;28;20092;-68
2021/07/21 04:54:07;;;;;;;0.20;0.20;;;;;;;24.51;55.74;96724.91;5033239;28;20037;-70
2021/07/21 04:56:33;;;;;;;0.10;0.10;;;;;;;24.58;55.49;96722.22;5033766;28;20069;-67
2021/07/21 04:58:59;;;;;;;0.20;0.20;;;;;;;24.68;55.46;96729.22;5032947;28;20068;-68
2021/07/21 05:01:25;;;;;;;0.10;0.10;;;;;;;24.70;55.49;96724.81;5032831;28;20496;-68
2021/07/21 05:03:54;;;;;;;0.30;0.20;;;;;;;24.78;55.45;96726.53;5032931;28;20124;-68
2021/07/21 05:06:23;;;;;;;3.95;0.52;;;;;;;24.83;55.63;96723.38;5032767;28;20038;-69
2021/07/21 05:08:49;;;;;;;3.55;0.88;;;;;;;24.83;55.56;96729.00;5033387;28;20404;-69
2021/07/21 05:11:15;;;;;;;0.20;0.20;;;;;;;24.80;55.34;96729.75;5032950;28;20049;-68
2021/07/21 05:13:41;;;;;;;0.60;0.38;;;;;;;24.74;55.89;96727.69;5040903;28;20087;-68
2021/07/21 05:16:08;;;;;;;0.10;0.10;;;;;;;24.67;56.18;96728.38;5035880;28;20420;-68
2021/07/21 05:18:35;;;;;;;0.30;0.20;;;;;;;24.61;56.32;96736.31;5022839;28;20038;-68
2021/07/21 05:21:02;;;;;;;0.77;0.47;;;;;;;24.52;56.18;96737.75;5021810;28;20042;-70
2021/07/21 05:23:28;;;;;;;0.43;0.30;;;;;;;24.40;56.79;96736.78;5020442;28;20070;-68
2021/07/21 05:25:53;;;;;;;0.60;0.60;;;;;;;24.26;56.91;96730.94;5021986;28;20499;-69
2021/07/21 05:28:19;;;;;;;0.38;0.30;;;;;;;24.06;57.14;96738.63;5021326;28;20118;-69
2021/07/21 05:30:45;;;;;;;1.52;0.60;;;;;;;23.90;57.52;96741.56;5019056;28;20459;-69
2021/07/21 05:33:11;;;;;;;0.10;0.10;;;;;;;23.93;57.54;96735.22;5022050;28;20041;-69
2021/07/21 05:35:39;;;;;;;0.60;0.50;;;;;;;24.02;57.22;96732.97;5020888;28;20034;-70
2021/07/21 05:38:05;;;;;;;0.10;0.10;;;;;;;24.16;56.98;96754.00;5020612;28;20091;-70
2021/07/21 05:40:31;;;;;;;1.83;0.30;;;;;;;24.28;56.36;96745.41;5022197;28;20057;-70
2021/07/21 05:42:56;;;;;;;0.82;0.82;;;;;;;24.35;56.36;96759.53;5019993;28;20042;-70
2021/07/21 05:45:22;;;;;;;0.77;0.57;;;;;;;24.37;56.58;96756.38;5020831;28;20033;-69
2021/07/21 05:47:48;;;;;;;0.43;0.43;;;;;;;24.44;56.06;96756.44;5021852;28;20562;-70
2021/07/21 05:50:14;;;;;;;0.28;0.28;;;;;;;24.60;55.84;96753.53;5020377;28;20435;-70
2021/07/21 05:52:40;;;;;;;0.17;0.17;;;;;;;24.84;55.44;96750.28;5020954;28;20041;-70
2021/07/21 05:55:06;;;;;;;0.52;0.50;;;;;;;24.95;54.91;96749.63;5021698;28;20038;-69
2021/07/21 05:57:32;;;;;;;0.15;0.15;;;;;;;24.86;55.53;96751.91;5022155;28;20496;-70
2021/07/21 05:59:58;;;;;;;0.10;0.10;;;;;;;24.66;55.98;96766.88;5020823;28;20042;-70
2021/07/21 06:02:24;;;;;;;0.20;0.20;;;;;;;24.49;56.19;96765.34;5020409;28;20033;-69
2021/07/21 06:04:50;;;;;;;0.30;0.30;;;;;;;24.31;56.62;96761.47;5022000;28;20065;-70
2021/07/21 06:07:16;;;;;;;0.28;0.22;;;;;;;24.09;57.47;96782.75;5020550;28;20061;-70
2021/07/21 06:09:41;;;;;;;1.50;0.30;;;;;;;23.86;57.52;96780.72;5023061;28;20495;-71
2021/07/21 06:12:08;;;;;;;0.80;0.35;;;;;;;23.62;58.25;96768.66;5021021;28;20175;-68
2021/07/21 06:14:33;;;;;;;0.10;0.10;;;;;;;23.39;58.66;96779.00;5025834;28;20049;-70
2021/07/21 06:17:00;;;;;;;0.20;0.20;;;;;;;23.19;58.97;96779.00;5023656;28;20248;-69
2021/07/21 06:19:33;;;;;;;0.32;0.30;;;;;;;23.01;59.51;96770.19;5022358;28;20029;-69
2021/07/21 06:22:03;;;;;;;0.37;0.37;;;;;;;22.85;59.70;96787.03;5023725;28;20561;-68
2021/07/21 06:24:29;;;;;;;0.15;0.10;;;;;;;22.83;59.83;96785.78;5025483;28;20366;-69
2021/07/21 06:26:56;;;;;;;0.10;0.10;;;;;;;22.88;59.58;96771.50;5023452;28;20038;-70
2021/07/21 06:29:22;;;;;;;0.70;0.30;;;;;;;22.98;58.93;96779.31;5024280;28;20041;-71
2021/07/21 06:31:48;;;;;;;0.25;0.25;;;;;;;23.16;58.79;96774.13;5024656;28;20048;-70
2021/07/21 06:34:14;;;;;;;0.20;0.20;;;;;;;23.26;58.31;96781.13;5023447;28;20496;-69
2021/07/21 06:36:40;;;;;;;0.30;0.30;;;;;;;23.26;58.74;96778.31;5024373;28;20049;-70
2021/07/21 06:39:06;;;;;;;0.13;0.13;;;;;;;23.29;58.55;96773.97;5024640;28;20038;-67
2021/07/21 06:41:31;;;;;;;0.38;0.38;;;;;;;23.31;58.49;96780.84;5022603;28;20459;-69
2021/07/21 06:44:00;;;;;;;0.10;0.10;;;;;;;23.41;58.43;96791.44;5023296;28;20038;-70
2021/07/21 06:46:27;;;;;;;0.10;0.10;;;;;;;23.52;58.11;96788.84;5024603;28;20042;-70
2021/07/21 06:48:53;;;;;;;0.20;0.20;;;;;;;23.68;57.72;96785.16;5021201;28;20040;-70
2021/07/21 06:51:22;;;;;;;0.35;0.35;;;;;;;23.85;57.57;96769.84;5023721;28;20496;-70
2021/07/21 06:53:48;;;;;;;0.30;0.30;;;;;;;24.06;57.10;96764.66;5024710;28;20046;-69
2021/07/21 06:56:15;;;;;;;0.17;0.17;;;;;;;24.29;56.87;96772.25;5022843;28;20515;-70
2021/07/21 06:58:41;;;;;;;0.20;0.13;;;;;;;24.55;56.29;96767.84;5023704;28;20128;-70
2021/07/21 07:01:07;;;;;;;0.10;0.10;;;;;;;24.80;55.77;96771.06;5024581;28;20112;-71
2021/07/21 07:03:33;;;;;;;0.15;0.15;;;;;;;25.03;55.69;96762.56;5022470;28;20070;-71
2021/07/21 07:06:00;;;;;;;0.10;0.10;;;;;;;25.32;55.19;96772.19;5023811;28;20057;-70
2021/07/21 07:08:26;;;;;;;0.40;0.35;;;;;;;25.61;54.37;96774.53;5024256;28;20386;-71
2021/07/21 07:10:52;;;;;;;1.35;0.45;;;;;;;25.71;54.21;96776.66;5022329;28;20041;-72
2021/07/21 07:13:18;;;;;;;0.10;0.10;;;;;;;25.65;54.87;96775.38;5022693;28;20041;-70
2021/07/21 07:15:44;;;;;;;0.05;0.05;;;;;;;25.53;55.26;96780.06;5030006;28;20033;-71
2021/07/21 07:18:14;;;;;;;1.38;0.40;;;;;;;25.45;55.38;96775.53;5036437;28;20379;-70
2021/07/21 07:20:45;;;;;;;0.10;0.10;;;;;;;25.50;55.33;96775.22;5024128;28;20049;-71
2021/07/21 07:23:12;;;;;;;0.10;0.10;;;;;;;25.61;55.02;96768.91;5024674;28;20039;-70
2021/07/21 07:25:39;;;;;;;0.40;0.40;;;;;;;25.66;54.76;96769.38;5023883;28;20123;-70
2021/07/21 07:28:06;;;;;;;0.30;0.30;;;;;;;25.63;55.09;96769.31;5023938;28;20436;-70
2021/07/21 07:30:32;;;;;;;0.10;0.10;;;;;;;25.62;55.10;96776.16;5022189;28;20041;-70
2021/07/21 07:32:59;;;;;;;0.10;0.10;;;;;;;25.61;55.30;96769.72;5023576;28;20065;-70
2021/07/21 07:35:25;;;;;;;0.20;0.20;;;;;;;25.61;55.20;96763.28;5022782;28;20039;-70
2021/07/21 07:37:51;;;;;;;0.20;0.20;;;;;;;25.68;55.27;96775.41;5020670;28;20037;-70
2021/07/21 07:40:17;;;;;;;0.10;0.10;;;;;;;25.87;54.79;96774.41;5023785;28;20045;-71
2021/07/21 07:42:44;;;;;;;0.55;0.32;;;;;;;26.04;54.39;96775.00;5022821;28;20049;-69
2021/07/21 07:45:10;;;;;;;0.40;0.40;;;;;;;26.16;53.86;96782.34;5022041;28;20042;-69
2021/07/21 07:47:36;;;;;;;0.38;0.38;;;;;;;26.20;54.01;96781.16;5022705;28;20076;-70
2021/07/21 07:50:08;;;;;;;0.22;0.22;;;;;;;26.33;54.02;96784.50;5022842;28;20133;-70
2021/07/21 07:52:35;;;;;;;0.10;0.10;;;;;;;26.47;53.93;96788.63;5021644;28;20488;-70
2021/07/21 07:55:03;;;;;;;0.20;0.20;;;;;;;26.56;53.64;96787.13;5022872;28;20045;-70
2021/07/21 07:57:29;;;;;;;1.33;1.15;;;;;;;26.60;53.49;96789.94;5023946;28;20440;-71
2021/07/21 07:59:55;;;;;;;0.25;0.25;;;;;;;26.68;53.30;96790.84;5021758;28;20076;-70
2021/07/21 08:02:20;;;;;;;0.15;0.15;;;;;;;26.86;53.09;96794.59;5022726;28;20550;-69
2021/07/21 08:04:46;;;;;;;0.40;0.40;;;;;;;27.01;52.58;96789.03;5020986;28;20082;-69
2021/07/21 08:07:12;;;;;;;0.30;0.30;;;;;;;26.90;52.92;96794.63;5023664;28;20476;-70
2021/07/21 08:09:37;;;;;;;0.30;0.20;;;;;;;26.69;53.48;96792.44;5021932;28;20511;-70
2021/07/21 08:12:04;;;;;;;0.20;0.20;;;;;;;26.43;54.28;96808.31;5021754;28;20037;-70
2021/07/21 08:14:30;;;;;;;0.35;0.28;;;;;;;26.15;54.96;96806.84;5023413;28;20085;-71
2021/07/21 08:20:58;;;;;;;0.13;0.13;;;;;;;25.55;56.39;96816.22;5020218;28;20047;-70
2021/07/21 08:24:04;;;;;;;0.20;0.20;;;;;;;25.48;56.02;96816.13;5022645;28;20061;-68
2021/07/21 08:27:09;;;;;;;0.30;0.20;;;;;;;25.45;56.15;96825.31;5021376;28;20522;-70
2021/07/21 08:30:15;;;;;;;0.65;0.43;;;;;;;25.41;56.38;96827.28;5021597;28;20037;-69
2021/07/21 08:33:23;;;;;;;0.10;0.10;;;;;;;25.21;56.89;96832.22;5023117;28;20128;-69
2021/07/21 08:36:29;;;;;;;0.20;0.20;;;;;;;25.04;56.85;96825.94;5022363;28;20042;-69
2021/07/21 08:39:34;;;;;;;0.10;0.10;;;;;;;24.92;57.51;96824.16;5030263;28;20033;-71
2021/07/21 08:42:01;;;;;;;0.20;0.20;;;;;;;24.86;57.43;96822.88;5020972;28;20041;-69
2021/07/21 08:51:53;;;;;;;0.40;0.35;;;;;;;24.14;58.76;96830.91;5021625;28;20513;-67
2021/07/21 08:58:22;;;;;;;0.35;0.30;;;;;;;23.78;59.76;96837.81;5020702;28;20047;-66
2021/07/21 09:04:51;;;;;;;0.10;0.10;;;;;;;23.97;59.13;96839.78;5019583;28;20356;-67
2021/07/21 09:11:23;;;;;;;3.10;0.73;;;;;;;24.34;58.06;96844.88;5021285;28;20107;-72
2021/07/21 09:17:52;;;;;;;0.17;0.17;;;;;;;24.46;57.90;96841.06;5033175;28;20076;-70
2021/07/21 09:20:59;;;;;;;0.15;0.15;;;;;;;24.38;57.79;96837.31;5025613;28;20041;-70
2021/07/21 09:31:09;;;;;;;0.20;0.20;;;;;;;24.63;57.44;96865.00;5020975;28;20168;-69
2021/07/21 09:37:44;;;;;;;0.10;0.10;;;;;;;24.43;58.34;96847.41;5021645;28;20056;-70
2021/07/21 09:44:20;;;;;;;0.15;0.08;;;;;;;24.39;58.15;96858.56;5018585;28;20228;-72
2021/07/21 09:47:39;;;;;;;0.10;0.10;;;;;;;24.25;58.39;96861.94;5020968;28;20414;-71
2021/07/21 09:51:02;;;;;;;0.10;0.10;;;;;;;23.90;59.32;96864.88;5018924;28;20037;-69
2021/07/21 09:54:26;;;;;;;0.10;0.10;;;;;;;23.66;59.81;96858.38;5020506;28;20062;-70
2021/07/21 09:57:32;;;;;;;0.10;0.10;;;;;;;23.52;60.36;96863.69;5015581;28;20198;-70
2021/07/21 10:00:18;;;;;;;1.08;0.52;;;;;;;23.43;60.56;96869.50;5020175;28;20087;-72
2021/07/21 10:06:10;;;;;;;0.20;0.20;;;;;;;23.21;60.82;96869.00;5021499;28;20041;-71
2021/07/21 10:08:49;;;;;;;0.70;0.68;;;;;;;23.09;60.85;96869.91;5019605;28;20500;-72
2021/07/21 10:11:20;;;;;;;0.20;0.20;;;;;;;22.93;61.55;96877.53;5019100;28;20133;-69
2021/07/21 10:13:47;;;;;;;0.10;0.10;;;;;;;22.73;61.83;96883.09;5020128;28;20099;-72
2021/07/21 10:16:43;;;;;;;1.90;0.20;;;;;;;22.59;62.38;96895.91;5021457;28;20124;-72
2021/07/21 10:19:19;;;;;;;0.43;0.43;;;;;;;22.38;62.27;96900.59;5018639;28;20046;-71
2021/07/21 10:21:57;;;;;;;0.52;0.35;;;;;;;22.29;62.95;96897.13;5020819;28;20081;-73
2021/07/21 10:24:26;;;;;;;0.25;0.25;;;;;;;22.23;62.95;96896.56;5021605;28;20033;-73
2021/07/21 10:26:53;;;;;;;0.10;0.10;;;;;;;22.17;62.64;96902.78;5021589;28;20491;-71
2021/07/21 10:29:19;;;;;;;0.57;0.57;;;;;;;22.12;62.77;96898.25;5020147;28;20120;-70
2021/07/21 10:31:46;;;;;;;0.10;0.10;;;;;;;22.09;63.07;96904.56;5022279;28;20100;-76
2021/07/21 10:34:16;;;;;;;1.25;0.90;;;;;;;22.07;62.88;96892.94;5018107;28;20129;-72
2021/07/21 10:36:41;;;;;;;0.30;0.22;;;;;;;22.08;62.73;96894.53;5022279;28;20030;-70
2021/07/21 10:39:13;;;;;;;0.30;0.30;;;;;;;22.10;62.70;96906.19;5032397;28;20140;-70
2021/07/21 10:41:39;;;;;;;0.10;0.10;;;;;;;22.17;62.78;96905.56;5031221;28;20534;-77
2021/07/21 10:44:08;;;;;;;0.50;0.50;;;;;;;22.23;62.74;96895.75;5025144;28;20486;-75
2021/07/21 10:46:37;;;;;;;0.20;0.20;;;;;;;22.29;62.56;96899.91;5020828;28;20030;-71
2021/07/21 10:49:34;;;;;;;0.10;0.10;;;;;;;22.35;62.32;96890.13;5021574;28;20070;-72
2021/07/21 10:52:42;;;;;;;0.10;0.10;;;;;;;22.40;62.06;96909.41;5021211;28;20535;-72
2021/07/21 11:00:36;;;;;;;0.65;0.65;;;;;;;22.55;62.19;96920.97;5025053;28;20488;-71
2021/07/21 11:03:45;;;;;;;0.10;0.10;;;;;;;22.64;61.72;96909.59;5024596;28;20038;-70
2021/07/21 11:07:03;;;;;;;1.38;0.40;;;;;;;22.81;61.41;96916.84;5022627;28;20092;-70
2021/07/21 11:16:46;;;;;;;0.43;0.43;;;;;;;24.23;58.30;96911.94;5025096;28;20538;-71
2021/07/21 11:20:04;;;;;;;0.20;0.20;;;;;;;24.68;57.47;96917.22;5034452;28;20065;-71
2021/07/21 11:22:30;;;;;;;0.13;0.13;;;;;;;24.97;56.71;96921.28;5003125;28;20058;-72
2021/07/21 11:25:06;;;;;;;0.32;0.32;;;;;;;25.12;56.90;96899.88;5022749;28;20037;-70
2021/07/21 11:27:46;;;;;;;0.13;0.13;;;;;;;25.29;56.37;96915.34;5022577;28;20041;-74
2021/07/21 11:31:12;;;;;;;0.00;0.00;;;;;;;25.41;56.25;96905.94;5022499;28;20104;-72
2021/07/21 11:33:54;;;;;;;0.10;0.10;;;;;;;25.49;56.27;96913.28;4981893;28;20073;-68
2021/07/21 11:36:38;;;;;;;0.30;0.30;;;;;;;25.53;56.69;96906.50;4981772;28;20061;-72
2021/07/21 11:39:06;;;;;;;0.10;0.10;;;;;;;25.54;56.77;96915.75;5009088;28;20053;-72
2021/07/21 11:41:55;;;;;;;0.15;0.15;;;;;;;25.51;56.91;96917.34;5021737;28;20463;-72
2021/07/21 11:44:24;;;;;;;0.20;0.20;;;;;;;25.45;56.87;96920.84;5023466;28;20038;-71
2021/07/21 11:47:29;;;;;;;0.13;0.13;;;;;;;25.43;57.22;96920.44;5021706;28;20060;-72
2021/07/21 11:49:55;;;;;;;0.15;0.15;;;;;;;25.35;57.35;96914.69;5022034;28;20137;-71
2021/07/21 11:52:24;;;;;;;0.10;0.10;;;;;;;25.34;57.63;96912.28;5023596;28;20129;-69
2021/07/21 11:54:51;;;;;;;0.30;0.30;;;;;;;25.28;57.42;96914.56;5022062;28;20077;-70
2021/07/21 11:57:25;;;;;;;0.20;0.20;;;;;;;25.21;58.05;96910.84;5022990;28;20029;-73
2021/07/21 12:07:17;;;;;;;0.20;0.20;;;;;;;25.03;58.44;96925.41;5022622;28;20040;-72
2021/07/21 12:10:13;;;;;;;0.70;0.65;;;;;;;25.05;58.50;96928.63;5021898;28;20050;-72
2021/07/21 12:16:42;;;;;;;0.10;0.10;;;;;;;24.91;58.29;96929.22;5022094;28;20068;-72
2021/07/21 12:23:11;;;;;;;0.00;0.00;;;;;;;24.96;58.33;96936.53;5020188;28;20519;-69
2021/07/21 12:33:03;;;;;;;0.20;0.20;;;;;;;25.36;57.64;96932.34;5022131;28;20124;-70
2021/07/21 12:42:54;;;;;;;0.25;0.25;;;;;;;25.53;57.38;96936.63;5019704;28;20047;-69
2021/07/21 12:46:00;;;;;;;0.10;0.10;;;;;;;25.78;56.44;96934.16;5011124;28;21156;-70
2021/07/21 12:52:34;;;;;;;0.80;0.55;;;;;;;26.05;56.19;96940.53;5013450;28;20108;-77
2021/07/21 13:05:46;;;;;;;0.20;0.20;;;;;;;26.39;54.90;96948.16;5012256;28;20778;-70
2021/07/21 13:08:18;;;;;;;0.63;0.63;;;;;;;26.30;55.11;96944.84;5014223;28;20054;-71
2021/07/21 13:10:44;;;;;;;0.63;0.63;;;;;;;26.16;55.60;96957.56;5016521;28;20046;-69
2021/07/21 13:13:51;;;;;;;1.35;0.85;;;;;;;26.20;55.41;96958.38;5011891;28;20037;-68
2021/07/21 13:16:25;;;;;;;0.73;0.28;;;;;;;26.26;55.35;96960.88;5008937;28;20050;-68
2021/07/21 13:19:00;;;;;;;1.63;0.90;;;;;;;26.31;54.66;96963.31;5012389;28;20408;-69
2021/07/21 13:21:34;;;;;;;0.30;0.30;;;;;;;26.29;55.06;96969.34;5032995;28;20072;-70
2021/07/21 13:24:18;;;;;;;0.82;0.60;;;;;;;26.21;54.87;96981.72;5015116;28;20033;-71
2021/07/21 13:27:27;;;;;;;0.20;0.20;;;;;;;26.02;55.11;96974.25;5016110;28;20472;-72
2021/07/21 13:29:52;;;;;;;0.77;0.43;;;;;;;25.79;55.62;96975.09;5000011;28;20423;-74
2021/07/21 13:32:23;;;;;;;0.65;0.65;;;;;;;25.59;55.90;96973.59;5012152;28;20042;-75
2021/07/21 13:35:06;;;;;;;0.90;0.40;;;;;;;25.44;56.17;96973.44;5015348;28;20045;-68
2021/07/21 13:37:32;;;;;;;0.10;0.10;;;;;;;25.35;56.33;96984.09;5014043;28;20044;-68
2021/07/21 13:40:09;;;;;;;0.10;0.10;;;;;;;25.30;56.27;96984.41;5014655;28;20041;-69
2021/07/21 13:42:35;;;;;;;0.43;0.22;;;;;;;25.28;56.12;96986.75;5012037;28;20389;-69